Time;durP1;ratioP1;P1;durP2;ratioP2;P2;SDS_P1;SDS_P2;PMS_P1;PMS_P2;Temp;Humidity;BMP_temperature;BMP_pressure;BME280_temperature;BME280_humidity;BME280_pressure;Samples;Min_cycle;Max_cycle;Signal;HPM_P1;HPM_P2
2021/10/12 00:01:40;;;;;;;5.18;4.97;;;13.00;68.40;;;;;;5029285;28;20048;-87
2021/10/12 00:04:06;;;;;;;5.28;5.05;;;13.00;68.50;;;;;;5030705;28;20028;-87
2021/10/12 00:06:32;;;;;;;5.05;4.82;;;12.90;68.60;;;;;;5031050;28;20052;-87
2021/10/12 00:08:58;;;;;;;5.60;5.22;;;12.90;68.70;;;;;;5014169;28;20472;-87
2021/10/12 00:11:25;;;;;;;4.80;4.60;;;12.90;68.70;;;;;;5030663;28;20404;-87
2021/10/12 00:13:51;;;;;;;5.40;5.15;;;12.90;68.80;;;;;;5013915;28;20583;-87
2021/10/12 00:16:18;;;;;;;7.47;5.03;;;12.80;68.80;;;;;;5030839;28;20046;-87
2021/10/12 00:18:44;;;;;;;5.00;4.70;;;12.80;68.80;;;;;;5014519;28;20388;-87
2021/10/12 00:21:10;;;;;;;4.90;4.70;;;12.80;68.90;;;;;;5030571;28;20136;-87
2021/10/12 00:23:37;;;;;;;5.00;4.80;;;12.80;69.00;;;;;;5013891;28;20040;-87
2021/10/12 00:26:03;;;;;;;5.20;4.60;;;12.70;68.90;;;;;;5030373;28;20369;-87
2021/10/12 00:28:30;;;;;;;5.70;4.93;;;12.70;68.90;;;;;;5030566;28;20472;-87
2021/10/12 00:30:57;;;;;;;4.68;4.47;;;12.70;69.00;;;;;;5030825;28;20400;-88
2021/10/12 00:33:24;;;;;;;4.45;4.25;;;12.60;69.00;;;;;;5031749;28;20033;-87
2021/10/12 00:35:50;;;;;;;4.35;4.15;;;12.70;69.10;;;;;;5031291;28;20052;-87
2021/10/12 00:38:16;;;;;;;4.20;4.00;;;12.60;69.10;;;;;;5035429;28;20029;-87
2021/10/12 00:40:42;;;;;;;4.45;4.10;;;12.60;69.10;;;;;;5017559;28;20033;-87
2021/10/12 00:43:09;;;;;;;4.15;3.85;;;12.60;69.20;;;;;;5034165;28;20036;-88
2021/10/12 00:45:36;;;;;;;4.10;3.90;;;12.60;69.20;;;;;;5016818;28;20026;-87
2021/10/12 00:48:06;;;;;;;4.03;3.83;;;12.60;69.30;;;;;;5033924;28;20033;-87
2021/10/12 00:50:34;;;;;;;4.27;4.07;;;12.60;69.30;;;;;;5017785;28;20018;-87
2021/10/12 00:53:00;;;;;;;4.40;4.20;;;12.60;69.20;;;;;;5033892;28;20272;-86
2021/10/12 00:55:27;;;;;;;4.88;4.57;;;12.60;69.30;;;;;;5033891;28;20037;-87
2021/10/12 00:57:53;;;;;;;5.60;4.07;;;12.60;69.30;;;;;;5034049;28;20387;-86
2021/10/12 01:00:19;;;;;;;4.13;3.92;;;12.60;69.20;;;;;;5033154;28;20049;-87
2021/10/12 01:02:46;;;;;;;4.10;3.90;;;12.60;69.20;;;;;;5033622;28;20041;-87
2021/10/12 01:05:12;;;;;;;4.10;3.90;;;12.60;69.30;;;;;;5033760;28;20515;-88
2021/10/12 01:07:38;;;;;;;3.90;3.70;;;12.50;69.30;;;;;;5033844;28;20044;-87
2021/10/12 01:10:05;;;;;;;4.03;3.83;;;12.50;69.30;;;;;;5034854;28;20045;-87
2021/10/12 01:12:31;;;;;;;4.10;3.90;;;12.50;69.40;;;;;;5017087;28;20045;-86
2021/10/12 01:14:57;;;;;;;4.00;3.80;;;12.50;69.40;;;;;;5033023;28;20045;-87
2021/10/12 01:17:23;;;;;;;4.30;4.00;;;12.50;69.40;;;;;;5032941;28;20044;-86
2021/10/12 01:19:50;;;;;;;3.97;3.78;;;12.50;69.50;;;;;;5034439;28;20021;-87
2021/10/12 01:22:16;;;;;;;5.63;5.28;;;12.50;69.50;;;;;;5033508;28;20025;-86
2021/10/12 01:24:42;;;;;;;4.03;3.83;;;12.50;69.50;;;;;;5035053;28;20044;-87
2021/10/12 01:27:08;;;;;;;3.90;3.70;;;12.50;69.60;;;;;;5034547;28;20033;-87
2021/10/12 01:29:34;;;;;;;4.05;3.85;;;12.50;69.60;;;;;;5034127;28;20053;-87
2021/10/12 01:32:00;;;;;;;4.20;4.00;;;12.40;69.50;;;;;;5016216;28;20396;-87
2021/10/12 01:34:27;;;;;;;4.20;4.00;;;12.40;69.50;;;;;;5033005;28;20408;-87
2021/10/12 01:36:53;;;;;;;4.03;3.80;;;12.40;69.60;;;;;;5016621;28;20041;-87
2021/10/12 01:39:19;;;;;;;4.00;3.80;;;12.40;69.70;;;;;;5033400;28;20033;-87
2021/10/12 01:41:45;;;;;;;4.45;4.15;;;12.40;69.70;;;;;;5000347;28;20052;-87
2021/10/12 01:44:12;;;;;;;4.00;3.80;;;12.40;69.70;;;;;;5016253;28;20032;-88
2021/10/12 01:46:39;;;;;;;4.35;4.15;;;12.40;69.70;;;;;;5028114;28;20037;-87
2021/10/12 01:49:05;;;;;;;4.43;4.22;;;12.40;69.80;;;;;;5032310;28;20036;-86
2021/10/12 01:51:31;;;;;;;4.00;3.80;;;12.40;69.80;;;;;;5034656;28;20028;-87
2021/10/12 01:53:59;;;;;;;4.20;4.00;;;12.40;69.90;;;;;;5016226;28;20052;-86
2021/10/12 01:56:25;;;;;;;4.20;4.00;;;12.40;69.90;;;;;;5016503;28;20037;-87
2021/10/12 01:58:51;;;;;;;4.13;3.92;;;12.40;69.90;;;;;;5032351;28;20021;-87
2021/10/12 02:01:21;;;;;;;3.97;3.78;;;12.30;69.90;;;;;;5015350;28;20053;-88
2021/10/12 02:03:47;;;;;;;3.90;3.70;;;12.30;69.90;;;;;;5009846;28;20534;-87
2021/10/12 02:06:13;;;;;;;4.00;3.80;;;12.30;69.90;;;;;;5040093;28;20036;-87
2021/10/12 02:08:40;;;;;;;4.03;3.83;;;12.30;69.90;;;;;;5028204;28;20029;-88
2021/10/12 02:11:06;;;;;;;3.80;3.60;;;12.30;70.00;;;;;;5032042;28;20033;-86
2021/10/12 02:13:32;;;;;;;3.78;3.58;;;12.30;70.00;;;;;;5029092;28;20030;-87
2021/10/12 02:15:58;;;;;;;4.13;3.92;;;12.30;70.00;;;;;;5029844;28;20037;-87
2021/10/12 02:18:25;;;;;;;4.10;3.90;;;12.30;70.10;;;;;;5032127;28;20036;-87
2021/10/12 02:20:51;;;;;;;4.00;3.80;;;12.20;70.00;;;;;;5030104;28;20044;-87
2021/10/12 02:23:17;;;;;;;4.45;4.22;;;12.20;70.10;;;;;;5030202;28;20036;-88
2021/10/12 02:25:43;;;;;;;4.25;4.05;;;12.20;70.20;;;;;;5031513;28;20032;-88
2021/10/12 02:28:10;;;;;;;4.78;4.47;;;12.10;70.10;;;;;;5029737;28;20036;-88
2021/10/12 02:30:36;;;;;;;4.00;3.80;;;12.10;70.20;;;;;;5013920;28;20415;-87
2021/10/12 02:33:02;;;;;;;4.10;3.90;;;12.10;70.20;;;;;;5010792;28;20059;-88
2021/10/12 02:35:29;;;;;;;3.97;3.78;;;12.10;70.20;;;;;;5012798;28;20379;-89
2021/10/12 02:37:55;;;;;;;4.32;4.00;;;12.10;70.20;;;;;;5048218;28;20052;-87
2021/10/12 02:40:21;;;;;;;3.88;3.67;;;12.10;70.20;;;;;;5033357;28;20028;-88
2021/10/12 02:42:48;;;;;;;3.85;3.65;;;12.10;70.20;;;;;;5031865;28;20021;-88
2021/10/12 02:45:14;;;;;;;3.88;3.67;;;12.10;70.20;;;;;;5031853;28;20028;-87
2021/10/12 02:47:40;;;;;;;3.90;3.70;;;12.10;70.20;;;;;;5031916;28;20037;-87
2021/10/12 02:50:07;;;;;;;4.38;4.10;;;12.00;70.30;;;;;;5031153;28;20415;-88
2021/10/12 02:52:33;;;;;;;4.30;4.10;;;12.00;70.30;;;;;;5031760;28;20538;-87
2021/10/12 02:54:59;;;;;;;4.15;3.95;;;12.00;70.30;;;;;;5031890;28;20037;-87
2021/10/12 02:57:25;;;;;;;4.30;4.10;;;12.00;70.30;;;;;;5048335;28;20053;-87
2021/10/12 02:59:51;;;;;;;17.33;4.13;;;11.90;70.40;;;;;;5030939;28;20361;-88
2021/10/12 03:02:17;;;;;;;4.05;3.85;;;11.90;70.40;;;;;;5030959;28;20052;-87
2021/10/12 03:04:43;;;;;;;4.07;3.88;;;11.90;70.50;;;;;;5014784;28;20030;-88
2021/10/12 03:07:10;;;;;;;4.20;4.00;;;11.80;70.50;;;;;;5031729;28;20036;-87
2021/10/12 03:09:37;;;;;;;10.02;4.40;;;11.80;70.50;;;;;;5033070;28;20399;-88
2021/10/12 03:12:05;;;;;;;3.85;3.65;;;11.80;70.50;;;;;;5014696;28;20037;-88
2021/10/12 03:14:32;;;;;;;4.20;4.00;;;11.80;70.60;;;;;;5032526;28;20495;-87
2021/10/12 03:16:58;;;;;;;4.10;3.90;;;11.80;70.60;;;;;;5030626;28;20041;-87
2021/10/12 03:19:25;;;;;;;4.20;4.00;;;11.80;70.60;;;;;;5031326;28;20025;-87
2021/10/12 03:21:55;;;;;;;4.50;4.20;;;11.80;70.60;;;;;;5015097;28;20025;-87
2021/10/12 03:24:21;;;;;;;4.95;4.50;;;11.80;70.60;;;;;;5031551;28;20460;-88
2021/10/12 03:26:47;;;;;;;4.03;3.83;;;11.80;70.60;;;;;;5030812;28;20048;-88
2021/10/12 03:29:13;;;;;;;4.10;3.90;;;11.70;70.50;;;;;;5031066;28;20472;-88
2021/10/12 03:31:40;;;;;;;3.90;3.70;;;11.70;70.60;;;;;;5014605;28;20330;-89
2021/10/12 03:34:06;;;;;;;4.13;3.92;;;11.70;70.70;;;;;;5030882;28;20054;-88
2021/10/12 03:36:32;;;;;;;4.93;4.50;;;11.70;70.70;;;;;;5031575;28;20041;-89
2021/10/12 03:38:58;;;;;;;4.60;4.32;;;11.70;70.70;;;;;;5031700;28;20029;-88
2021/10/12 03:41:24;;;;;;;4.28;4.07;;;11.70;70.70;;;;;;5031121;28;20033;-89
2021/10/12 03:43:50;;;;;;;3.92;3.72;;;11.60;70.80;;;;;;5031050;28;20499;-90
2021/10/12 03:46:16;;;;;;;4.38;4.18;;;11.70;70.80;;;;;;5031851;28;20037;-89
2021/10/12 03:48:43;;;;;;;4.10;3.90;;;11.60;70.80;;;;;;5031813;28;20034;-88
2021/10/12 03:51:09;;;;;;;3.97;3.78;;;11.60;70.80;;;;;;5014787;28;20041;-90
2021/10/12 03:53:35;;;;;;;4.00;3.80;;;11.60;70.80;;;;;;5031619;28;20037;-88
2021/10/12 03:56:02;;;;;;;3.83;3.63;;;11.50;70.90;;;;;;5030912;28;20029;-89
2021/10/12 03:58:28;;;;;;;3.90;3.70;;;11.50;71.00;;;;;;5032119;28;20424;-89
2021/10/12 04:00:54;;;;;;;4.03;3.83;;;11.50;71.00;;;;;;5031623;28;20046;-89
2021/10/12 04:03:20;;;;;;;4.00;3.80;;;11.50;71.10;;;;;;5032282;28;20037;-88
2021/10/12 04:05:47;;;;;;;4.20;4.00;;;11.40;71.00;;;;;;5014461;28;20037;-88
2021/10/12 04:08:13;;;;;;;3.90;3.70;;;11.40;71.10;;;;;;5014052;28;20029;-89
2021/10/12 04:10:40;;;;;;;3.97;3.78;;;11.40;71.10;;;;;;5015475;28;20036;-89
2021/10/12 04:13:06;;;;;;;4.00;3.80;;;11.30;71.10;;;;;;5034891;28;20044;-89
2021/10/12 04:15:33;;;;;;;3.95;3.75;;;11.30;71.10;;;;;;5034713;28;20026;-88
2021/10/12 04:17:59;;;;;;;4.22;4.03;;;11.30;71.20;;;;;;5018356;28;20033;-88
2021/10/12 04:20:27;;;;;;;4.00;3.80;;;11.20;71.20;;;;;;5018747;28;20388;-89
2021/10/12 04:22:54;;;;;;;4.00;3.80;;;11.20;71.20;;;;;;5018241;28;20025;-88
2021/10/12 04:25:20;;;;;;;4.07;3.88;;;11.20;71.20;;;;;;5001988;28;20049;-88
2021/10/12 04:27:46;;;;;;;4.53;4.13;;;11.20;71.20;;;;;;5018575;28;20037;-88
2021/10/12 04:30:12;;;;;;;5.32;4.57;;;11.10;71.20;;;;;;5035448;28;20041;-88
2021/10/12 04:32:38;;;;;;;3.90;3.70;;;11.10;71.20;;;;;;5035531;28;20388;-88
2021/10/12 04:35:04;;;;;;;4.43;4.13;;;11.10;71.20;;;;;;5033984;28;20049;-89
2021/10/12 04:37:30;;;;;;;3.72;3.53;;;11.10;71.20;;;;;;5001607;28;20052;-89
2021/10/12 04:39:57;;;;;;;4.35;4.15;;;11.10;71.20;;;;;;5018139;28;20037;-88
2021/10/12 04:42:23;;;;;;;4.00;3.80;;;11.10;71.20;;;;;;5035862;28;20041;-88
2021/10/12 04:44:50;;;;;;;4.55;4.30;;;11.00;71.20;;;;;;5034174;28;20346;-87
2021/10/12 04:47:18;;;;;;;4.63;4.22;;;11.00;71.20;;;;;;5034828;28;20041;-88
2021/10/12 04:49:44;;;;;;;3.90;3.70;;;11.00;71.30;;;;;;5018278;28;20025;-88
2021/10/12 04:52:11;;;;;;;4.35;4.03;;;11.00;71.30;;;;;;5017559;28;20029;-88
2021/10/12 04:54:37;;;;;;;4.35;4.15;;;11.00;71.30;;;;;;5035600;28;20025;-88
2021/10/12 04:57:03;;;;;;;3.75;3.55;;;11.00;71.30;;;;;;5033860;28;20483;-88
2021/10/12 04:59:29;;;;;;;3.70;3.50;;;10.90;71.20;;;;;;5034184;28;20026;-88
2021/10/12 05:01:55;;;;;;;3.90;3.65;;;10.90;71.20;;;;;;5016993;28;20064;-88
2021/10/12 05:04:21;;;;;;;3.78;3.58;;;10.90;71.20;;;;;;5034198;28;20495;-89
2021/10/12 05:06:48;;;;;;;3.90;3.70;;;10.90;71.30;;;;;;5033977;28;20036;-89
2021/10/12 05:09:14;;;;;;;4.07;3.67;;;10.90;71.30;;;;;;5035424;28;20388;-88
2021/10/12 05:11:40;;;;;;;3.80;3.60;;;10.80;71.30;;;;;;5034827;28;20048;-89
2021/10/12 05:14:06;;;;;;;3.90;3.70;;;10.80;71.30;;;;;;5017350;28;20033;-90
2021/10/12 05:16:33;;;;;;;3.75;3.55;;;10.80;71.40;;;;;;5017194;28;20484;-88
2021/10/12 05:19:00;;;;;;;4.75;3.90;;;10.80;71.30;;;;;;5033910;28;20487;-89
2021/10/12 05:21:27;;;;;;;3.85;3.65;;;10.80;71.40;;;;;;5033608;28;20021;-88
2021/10/12 05:23:53;;;;;;;3.97;3.78;;;10.80;71.40;;;;;;5017298;28;20487;-88
2021/10/12 05:26:20;;;;;;;3.30;3.20;;;10.80;71.40;;;;;;5033397;28;20025;-87
2021/10/12 05:28:46;;;;;;;4.03;3.83;;;10.70;71.40;;;;;;5017129;28;20025;-89
2021/10/12 05:31:12;;;;;;;4.47;4.18;;;10.70;71.40;;;;;;5033343;28;20052;-89
2021/10/12 05:33:38;;;;;;;3.90;3.70;;;10.70;71.40;;;;;;5034971;28;20033;-88
2021/10/12 05:36:04;;;;;;;4.75;4.10;;;10.60;71.40;;;;;;5015764;28;20052;-87
2021/10/12 05:38:31;;;;;;;3.75;3.55;;;10.60;71.50;;;;;;5016928;28;20037;-88
2021/10/12 05:40:57;;;;;;;4.25;3.83;;;10.60;71.50;;;;;;5034309;28;20037;-89
2021/10/12 05:43:23;;;;;;;3.53;3.33;;;10.60;71.50;;;;;;5032797;28;20041;-88
2021/10/12 05:45:50;;;;;;;3.83;3.63;;;10.60;71.50;;;;;;5034191;28;20029;-88
2021/10/12 05:48:17;;;;;;;4.00;3.80;;;10.60;71.50;;;;;;5033350;28;20402;-87
2021/10/12 05:50:45;;;;;;;3.83;3.63;;;10.50;71.50;;;;;;5032402;28;20029;-88
2021/10/12 06:01:10;;;;;;;3.70;3.50;;;10.50;71.50;;;;;;5033741;28;20064;-87
2021/10/12 06:03:36;;;;;;;3.80;3.60;;;10.50;71.60;;;;;;5033209;28;20030;-87
2021/10/12 06:06:03;;;;;;;3.50;3.33;;;10.40;71.50;;;;;;5032188;28;20496;-87
2021/10/12 06:08:30;;;;;;;3.75;3.55;;;10.50;72.40;;;;;;5032627;28;20029;-88
2021/10/12 06:11:00;;;;;;;4.03;3.83;;;10.50;71.60;;;;;;5015933;28;20037;-87
2021/10/12 06:13:27;;;;;;;4.32;3.70;;;10.40;71.50;;;;;;5032520;28;20040;-87
2021/10/12 06:15:53;;;;;;;3.30;3.20;;;10.40;71.50;;;;;;5032188;28;20033;-88
2021/10/12 06:18:19;;;;;;;3.70;3.50;;;10.40;71.60;;;;;;5032656;28;20042;-87
2021/10/12 06:20:46;;;;;;;3.42;3.33;;;10.40;71.60;;;;;;5015616;28;20033;-87
2021/10/12 06:23:12;;;;;;;3.83;3.63;;;10.40;71.60;;;;;;5016045;28;20033;-87
2021/10/12 06:25:39;;;;;;;3.92;3.72;;;10.40;71.60;;;;;;5015988;28;20088;-87
2021/10/12 06:28:05;;;;;;;3.85;3.58;;;10.40;71.60;;;;;;5032185;28;20041;-87
2021/10/12 06:30:32;;;;;;;3.78;3.58;;;10.40;71.60;;;;;;5031554;28;20029;-87
2021/10/12 06:32:58;;;;;;;3.83;3.63;;;10.30;71.70;;;;;;5031506;28;20029;-87
2021/10/12 06:35:27;;;;;;;4.85;4.05;;;10.30;71.70;;;;;;5015362;28;20033;-86
2021/10/12 06:37:53;;;;;;;3.60;3.40;;;10.30;71.70;;;;;;5016029;28;20044;-88
2021/10/12 06:40:19;;;;;;;3.92;3.72;;;10.30;71.70;;;;;;5031620;28;20489;-87
2021/10/12 06:42:45;;;;;;;4.40;3.63;;;10.30;71.70;;;;;;5031716;28;20046;-87
2021/10/12 06:45:11;;;;;;;3.28;3.17;;;10.30;71.80;;;;;;5032791;28;20032;-87
2021/10/12 06:47:38;;;;;;;3.67;3.47;;;10.30;71.70;;;;;;5032760;28;20037;-88
2021/10/12 06:50:04;;;;;;;3.33;3.22;;;10.30;71.70;;;;;;5031873;28;20032;-88
2021/10/12 06:52:31;;;;;;;3.30;3.20;;;10.30;71.70;;;;;;5032897;28;20212;-87
2021/10/12 06:54:57;;;;;;;3.20;3.10;;;10.30;71.60;;;;;;5033035;28;20412;-87
2021/10/12 06:57:23;;;;;;;3.63;3.42;;;10.30;71.60;;;;;;5033225;28;20037;-88
2021/10/12 06:59:49;;;;;;;3.47;3.28;;;10.30;71.60;;;;;;5032669;28;20468;-88
2021/10/12 07:02:15;;;;;;;20.77;3.45;;;10.40;71.60;;;;;;5031869;28;20042;-88
2021/10/12 07:04:41;;;;;;;3.33;3.22;;;10.40;71.50;;;;;;5032681;28;20033;-87
2021/10/12 07:07:07;;;;;;;3.25;3.15;;;10.50;71.40;;;;;;5032696;28;20033;-87
2021/10/12 07:09:33;;;;;;;3.85;3.55;;;10.50;71.40;;;;;;5015142;28;20045;-86
2021/10/12 07:12:00;;;;;;;3.38;3.17;;;10.50;71.30;;;;;;5031463;28;20041;-89
2021/10/12 07:14:27;;;;;;;3.40;3.20;;;10.60;71.30;;;;;;5032685;28;20029;-89
2021/10/12 07:16:53;;;;;;;3.13;3.03;;;10.60;71.30;;;;;;5030862;28;20041;-88
2021/10/12 07:19:20;;;;;;;3.40;3.20;;;10.70;71.20;;;;;;5032597;28;20388;-89
2021/10/12 07:21:46;;;;;;;3.50;3.30;;;10.80;71.10;;;;;;5031598;28;20045;-88
2021/10/12 07:24:12;;;;;;;3.72;3.53;;;10.90;71.10;;;;;;5032902;28;20060;-89
2021/10/12 07:26:38;;;;;;;4.32;4.13;;;11.00;71.00;;;;;;5006797;28;20049;-88
2021/10/12 07:29:05;;;;;;;4.45;4.25;;;11.50;70.50;;;;;;5031177;28;20040;-89
2021/10/12 07:31:31;;;;;;;4.38;4.18;;;12.00;69.20;;;;;;5013857;28;20034;-89
2021/10/12 07:33:58;;;;;;;4.35;4.15;;;12.50;67.90;;;;;;5031172;28;20029;-89
2021/10/12 07:36:24;;;;;;;4.18;3.97;;;12.90;66.90;;;;;;5031366;28;20411;-88
2021/10/12 07:38:50;;;;;;;4.00;3.80;;;13.20;66.30;;;;;;5014588;28;20048;-89
2021/10/12 07:41:16;;;;;;;5.25;4.95;;;13.50;65.60;;;;;;5031041;28;20033;-89
2021/10/12 07:43:42;;;;;;;4.60;4.40;;;13.80;65.30;;;;;;5014667;28;20052;-89
2021/10/12 07:46:08;;;;;;;4.50;4.30;;;14.00;65.00;;;;;;5030460;28;20128;-90
2021/10/12 07:48:35;;;;;;;5.05;4.85;;;14.40;64.90;;;;;;5031335;28;20029;-88
2021/10/12 07:51:01;;;;;;;4.90;4.70;;;14.60;64.30;;;;;;5032281;28;20029;-90
2021/10/12 07:53:29;;;;;;;4.97;4.78;;;14.90;64.10;;;;;;5031209;28;20044;-90
2021/10/12 07:55:59;;;;;;;6.57;5.22;;;15.10;63.80;;;;;;5015108;28;20499;-87
2021/10/12 07:58:25;;;;;;;5.97;5.67;;;15.10;63.70;;;;;;5015217;28;20046;-90
2021/10/12 08:00:51;;;;;;;5.68;5.40;;;15.00;64.00;;;;;;5031294;28;20056;-90
2021/10/12 08:03:17;;;;;;;5.00;4.80;;;15.00;64.20;;;;;;5031149;28;20041;-90
2021/10/12 08:05:44;;;;;;;4.70;4.50;;;15.00;64.40;;;;;;5031128;28;20021;-90
2021/10/12 08:08:10;;;;;;;6.47;5.80;;;15.20;64.40;;;;;;5030927;28;20033;-90
2021/10/12 08:10:37;;;;;;;7.45;7.05;;;15.50;64.10;;;;;;4997762;28;20038;-89
2021/10/12 08:13:06;;;;;;;7.20;6.80;;;15.60;63.80;;;;;;5031607;28;20046;-90
2021/10/12 08:15:32;;;;;;;6.57;6.25;;;15.60;63.80;;;;;;5030439;28;20037;-90
2021/10/12 08:17:58;;;;;;;5.68;5.38;;;15.50;63.90;;;;;;5031158;28;20042;-90
2021/10/12 08:20:25;;;;;;;6.22;5.93;;;15.50;64.40;;;;;;5030881;28;20026;-89
2021/10/12 08:22:51;;;;;;;5.97;5.68;;;15.50;64.40;;;;;;5014337;28;20034;-89
2021/10/12 08:25:17;;;;;;;5.65;5.40;;;15.50;64.60;;;;;;5030730;28;20029;-90
2021/10/12 08:27:43;;;;;;;5.78;5.47;;;15.40;65.00;;;;;;5032505;28;20392;-91
2021/10/12 08:30:10;;;;;;;6.47;6.18;;;15.20;65.40;;;;;;5013388;28;20025;-90
2021/10/12 08:32:36;;;;;;;6.00;5.70;;;15.10;65.90;;;;;;5013938;28;20407;-90
2021/10/12 08:35:03;;;;;;;6.82;6.43;;;15.10;66.30;;;;;;5014392;28;20037;-90
2021/10/12 08:37:29;;;;;;;12.38;11.80;;;15.10;66.50;;;;;;5014315;28;20056;-91
2021/10/12 08:39:55;;;;;;;6.25;5.95;;;15.20;66.60;;;;;;5030917;28;20476;-89
2021/10/12 08:42:25;;;;;;;6.07;5.78;;;15.30;66.40;;;;;;5031195;28;20041;-90
2021/10/12 08:45:04;;;;;;;5.80;5.50;;;15.60;66.10;;;;;;5031586;28;20030;-89
2021/10/12 08:47:31;;;;;;;5.50;5.20;;;15.80;66.40;;;;;;5029624;28;20042;-89
2021/10/12 08:49:57;;;;;;;5.70;5.40;;;16.10;65.10;;;;;;5013861;28;20460;-89
2021/10/12 08:52:23;;;;;;;6.40;6.10;;;16.40;64.50;;;;;;5030713;28;20033;-88
2021/10/12 08:54:50;;;;;;;6.10;5.80;;;16.60;64.10;;;;;;5030923;28;20033;-91
2021/10/12 08:57:46;;;;;;;6.10;5.80;;;16.70;63.90;;;;;;5032234;28;20052;-89
2021/10/12 09:00:14;;;;;;;6.22;5.93;;;16.60;64.10;;;;;;5035148;28;20053;-88
2021/10/12 09:06:02;;;;;;;5.72;5.43;;;16.40;64.80;;;;;;5035202;28;20029;-88
2021/10/12 09:08:35;;;;;;;6.03;5.72;;;16.20;65.20;;;;;;5002561;28;20045;-89
2021/10/12 09:11:01;;;;;;;5.72;5.43;;;16.10;65.50;;;;;;5017990;28;20029;-88
2021/10/12 09:13:28;;;;;;;7.20;5.75;;;16.10;65.70;;;;;;5017136;28;20535;-89
2021/10/12 09:16:03;;;;;;;5.90;5.60;;;16.10;65.80;;;;;;5033335;28;20032;-88
2021/10/12 09:18:50;;;;;;;5.95;5.53;;;16.00;65.90;;;;;;5048656;28;20041;-88
2021/10/12 09:21:27;;;;;;;8.93;6.00;;;15.90;66.00;;;;;;5024452;28;20033;-88
2021/10/12 09:24:14;;;;;;;5.65;5.38;;;15.90;66.10;;;;;;5033911;28;20030;-88
2021/10/12 09:26:44;;;;;;;5.57;5.28;;;15.80;66.20;;;;;;5033083;28;20041;-88
2021/10/12 09:29:14;;;;;;;5.93;5.63;;;15.80;66.30;;;;;;5033009;28;20032;-89
2021/10/12 09:31:42;;;;;;;6.03;5.72;;;15.70;66.30;;;;;;5034154;28;20034;-88
2021/10/12 09:34:09;;;;;;;5.43;5.18;;;15.70;66.30;;;;;;5017197;28;20025;-88
2021/10/12 09:36:45;;;;;;;5.70;5.40;;;15.70;66.40;;;;;;5034966;28;20021;-88
2021/10/12 09:39:15;;;;;;;5.90;5.50;;;15.70;66.60;;;;;;5016981;28;20059;-87
2021/10/12 09:42:04;;;;;;;6.07;5.68;;;15.70;66.50;;;;;;5016577;28;20025;-88
2021/10/12 09:44:31;;;;;;;5.68;5.38;;;15.70;66.30;;;;;;5034219;28;20032;-87
2021/10/12 09:47:15;;;;;;;5.22;5.03;;;15.70;66.20;;;;;;5016055;28;20030;-87
2021/10/12 09:49:43;;;;;;;5.30;5.00;;;15.70;66.30;;;;;;5033059;28;20033;-87
2021/10/12 09:52:11;;;;;;;5.18;4.97;;;15.70;66.20;;;;;;5016320;28;20052;-88
2021/10/12 09:54:38;;;;;;;5.38;5.18;;;15.80;66.10;;;;;;5034443;28;20376;-87
2021/10/12 09:57:05;;;;;;;5.50;5.22;;;15.90;66.00;;;;;;5032518;28;20044;-89
2021/10/12 09:59:32;;;;;;;6.38;6.00;;;15.90;65.80;;;;;;5016207;28;20484;-87
2021/10/12 10:01:58;;;;;;;6.30;6.00;;;16.00;65.80;;;;;;5014695;28;20033;-88
2021/10/12 10:04:25;;;;;;;6.30;6.00;;;16.10;65.70;;;;;;5016292;28;20034;-87
2021/10/12 10:06:53;;;;;;;5.82;5.53;;;16.20;65.40;;;;;;5032491;28;20026;-88
2021/10/12 10:09:21;;;;;;;5.90;5.60;;;16.30;65.30;;;;;;5031856;28;20025;-88
2021/10/12 10:11:47;;;;;;;6.00;5.70;;;16.30;65.20;;;;;;5015690;28;20032;-88
2021/10/12 10:14:14;;;;;;;5.93;5.63;;;16.30;65.20;;;;;;5032526;28;20037;-87
2021/10/12 10:16:43;;;;;;;6.13;5.82;;;16.30;65.20;;;;;;5031481;28;20034;-86
2021/10/12 10:19:16;;;;;;;6.10;5.80;;;16.30;65.20;;;;;;5032050;28;20045;-87
2021/10/12 10:21:46;;;;;;;6.00;5.70;;;16.40;65.10;;;;;;5028261;28;20024;-87
2021/10/12 10:24:33;;;;;;;6.05;5.75;;;16.40;65.00;;;;;;5016126;28;20044;-86
2021/10/12 10:27:00;;;;;;;5.90;5.60;;;16.40;64.90;;;;;;5023179;28;20045;-87
2021/10/12 10:29:27;;;;;;;5.90;5.60;;;16.50;64.80;;;;;;5015834;28;20040;-87
2021/10/12 10:31:59;;;;;;;6.00;5.70;;;16.50;64.70;;;;;;5031077;28;20037;-87
2021/10/12 10:34:40;;;;;;;6.28;5.97;;;16.60;64.50;;;;;;5015416;28;20052;-86
2021/10/12 10:37:15;;;;;;;6.57;6.28;;;16.70;64.40;;;;;;5031651;28;20040;-87
2021/10/12 10:40:08;;;;;;;6.88;6.57;;;16.80;64.30;;;;;;5033022;28;20033;-87
2021/10/12 10:42:41;;;;;;;6.43;6.13;;;16.80;64.20;;;;;;5031759;28;20053;-87
2021/10/12 10:45:10;;;;;;;28.10;6.57;;;16.90;64.10;;;;;;5032246;28;20041;-87
2021/10/12 10:47:50;;;;;;;7.88;7.47;;;16.90;64.00;;;;;;5031338;28;20105;-87
2021/10/12 10:50:16;;;;;;;6.43;6.13;;;17.00;63.90;;;;;;5015465;28;20032;-86
2021/10/12 10:52:50;;;;;;;6.70;6.40;;;17.10;63.60;;;;;;5032517;28;20028;-87
2021/10/12 10:55:22;;;;;;;6.90;6.60;;;17.10;63.30;;;;;;5015458;28;20052;-86
2021/10/12 10:58:08;;;;;;;6.47;6.18;;;17.00;64.30;;;;;;5029151;28;20064;-86
2021/10/12 11:00:38;;;;;;;6.68;6.38;;;17.00;63.60;;;;;;5013755;28;20414;-86
2021/10/12 11:03:05;;;;;;;6.28;5.97;;;17.00;63.50;;;;;;5032240;28;20028;-86
2021/10/12 11:05:38;;;;;;;6.90;6.60;;;17.00;63.30;;;;;;5014923;28;20388;-86
2021/10/12 11:08:09;;;;;;;7.10;6.70;;;17.10;63.20;;;;;;5015202;28;20030;-87
2021/10/12 11:10:35;;;;;;;6.70;6.40;;;17.20;62.90;;;;;;5031200;28;20048;-86
2021/10/12 11:13:01;;;;;;;8.93;7.40;;;17.20;62.80;;;;;;5030903;28;20037;-86
2021/10/12 11:15:27;;;;;;;6.55;6.25;;;17.10;62.70;;;;;;5013700;28;20044;-86
2021/10/12 11:18:03;;;;;;;7.32;6.82;;;17.10;62.50;;;;;;5031896;28;20033;-86
2021/10/12 11:20:54;;;;;;;6.72;6.43;;;17.10;62.30;;;;;;5031841;28;20036;-86
2021/10/12 11:23:23;;;;;;;;;;;17.10;62.20;;;;;;5016646;28;20028;-86
2021/10/12 11:26:03;;;;;;;6.43;6.13;;;17.10;62.20;;;;;;5031143;28;19920;-86
2021/10/12 11:28:30;;;;;;;6.57;6.28;;;17.10;62.20;;;;;;5033923;28;20087;-87
2021/10/12 11:31:07;;;;;;;6.97;6.57;;;17.20;62.10;;;;;;5030259;28;20140;-86
2021/10/12 11:33:47;;;;;;;6.78;6.38;;;17.30;62.00;;;;;;5046068;28;20037;-86
2021/10/12 11:36:18;;;;;;;6.88;6.57;;;17.40;61.80;;;;;;5030663;28;20036;-86
2021/10/12 11:38:53;;;;;;;10.80;10.30;;;17.40;61.70;;;;;;5013714;28;20045;-86
2021/10/12 11:41:25;;;;;;;12.10;11.55;;;17.40;61.40;;;;;;5031875;28;20492;-86
2021/10/12 11:43:54;;;;;;;7.45;7.15;;;17.50;61.20;;;;;;5030619;28;20530;-85
2021/10/12 11:46:21;;;;;;;7.40;7.10;;;17.40;61.00;;;;;;5013777;28;20029;-85
2021/10/12 11:48:48;;;;;;;7.13;6.82;;;17.40;61.90;;;;;;5032130;28;20051;-86
2021/10/12 11:51:15;;;;;;;7.10;6.80;;;17.50;61.00;;;;;;5030028;28;20041;-86
2021/10/12 11:53:42;;;;;;;7.38;7.05;;;17.50;60.80;;;;;;5030002;28;20029;-85
2021/10/12 11:56:09;;;;;;;8.30;6.88;;;17.50;60.70;;;;;;5030129;28;20522;-85
2021/10/12 11:58:36;;;;;;;7.32;7.03;;;17.50;60.80;;;;;;5014542;28;20033;-84
2021/10/12 12:01:03;;;;;;;7.68;7.28;;;17.60;60.60;;;;;;5031485;28;20049;-86
2021/10/12 12:03:29;;;;;;;7.10;6.80;;;17.60;60.60;;;;;;5031930;28;20492;-86
2021/10/12 12:05:56;;;;;;;7.20;6.82;;;17.70;60.50;;;;;;5030346;28;20037;-85
2021/10/12 12:08:23;;;;;;;8.00;7.60;;;17.80;60.50;;;;;;5013414;28;20034;-86
2021/10/12 12:10:49;;;;;;;7.20;6.90;;;17.80;60.40;;;;;;4994529;28;20034;-86
2021/10/12 12:13:15;;;;;;;7.53;7.22;;;17.80;60.20;;;;;;5013959;28;20025;-84
2021/10/12 12:15:41;;;;;;;7.40;7.00;;;17.80;60.10;;;;;;5009668;28;20033;-86
2021/10/12 12:18:22;;;;;;;7.25;6.95;;;17.80;60.10;;;;;;5030601;28;20034;-86
2021/10/12 12:20:50;;;;;;;7.18;6.78;;;17.90;60.10;;;;;;5029830;28;20062;-85
2021/10/12 12:23:32;;;;;;;7.70;7.30;;;17.90;60.00;;;;;;5030858;28;20050;-85
2021/10/12 12:25:59;;;;;;;6.97;6.68;;;18.00;59.90;;;;;;5062895;28;20041;-87
2021/10/12 12:28:25;;;;;;;7.38;7.07;;;18.10;59.70;;;;;;5030206;28;20026;-85
2021/10/12 12:30:51;;;;;;;7.72;7.32;;;18.10;59.40;;;;;;5013250;28;20514;-85
2021/10/12 12:33:17;;;;;;;7.03;6.72;;;18.10;59.40;;;;;;5034831;28;20507;-85
2021/10/12 12:35:47;;;;;;;7.95;7.55;;;18.10;59.40;;;;;;5016463;28;20037;-86
2021/10/12 12:38:27;;;;;;;7.57;7.28;;;18.10;59.50;;;;;;5033958;28;20038;-86
2021/10/12 12:40:54;;;;;;;7.57;7.18;;;18.00;59.50;;;;;;5017272;28;20026;-86
2021/10/12 12:43:30;;;;;;;7.50;7.20;;;18.00;59.40;;;;;;5033493;28;20049;-86
2021/10/12 12:46:13;;;;;;;7.20;6.90;;;18.00;59.40;;;;;;5002191;28;20034;-86
2021/10/12 12:48:40;;;;;;;8.00;7.60;;;18.00;59.50;;;;;;5034016;28;20037;-85
2021/10/12 12:51:08;;;;;;;8.18;7.68;;;18.00;59.40;;;;;;5021734;28;20044;-85
2021/10/12 12:53:48;;;;;;;7.32;7.03;;;18.00;59.30;;;;;;5017630;28;20499;-86
2021/10/12 12:56:16;;;;;;;7.40;7.10;;;18.00;59.40;;;;;;5045625;28;20022;-85
2021/10/12 12:58:43;;;;;;;6.63;6.32;;;18.10;59.20;;;;;;5001148;28;20049;-85
2021/10/12 13:01:17;;;;;;;7.70;7.30;;;18.10;59.20;;;;;;5016352;28;20404;-85
2021/10/12 13:03:43;;;;;;;7.20;6.90;;;18.10;59.20;;;;;;5029955;28;20039;-85